Time;durP1;ratioP1;P1;durP2;ratioP2;P2;SDS_P1;SDS_P2;PMS_P1;PMS_P2;Temp;Humidity;BMP_temperature;BMP_pressure;BME280_temperature;BME280_humidity;BME280_pressure;Samples;Min_cycle;Max_cycle;Signal;HPM_P1;HPM_P2
2021/12/07 00:01:43;;;;;;;44.53;23.50;;;0.40;99.90;;;;;;5079585;28;20293;-56
2021/12/07 00:04:11;;;;;;;37.25;23.80;;;0.30;99.90;;;;;;5080969;28;20230;-53
2021/12/07 00:06:39;;;;;;;35.95;23.35;;;0.40;99.90;;;;;;5080450;28;20270;-54
2021/12/07 00:09:10;;;;;;;40.08;23.67;;;0.60;99.90;;;;;;5087137;28;20230;-57
2021/12/07 00:11:38;;;;;;;34.38;22.42;;;0.50;99.90;;;;;;5084164;28;21051;-54
2021/12/07 00:14:12;;;;;;;41.30;23.60;;;0.50;99.90;;;;;;5079354;28;20229;-58
2021/12/07 00:16:41;;;;;;;38.40;22.50;;;0.60;99.90;;;;;;5077309;28;20249;-56
2021/12/07 00:19:11;;;;;;;41.33;23.35;;;0.70;99.90;;;;;;5079163;28;20498;-51
2021/12/07 00:21:40;;;;;;;41.80;24.45;;;0.80;99.90;;;;;;5072536;28;20612;-54
2021/12/07 00:24:08;;;;;;;45.25;24.38;;;0.70;99.90;;;;;;5079029;28;20266;-54
2021/12/07 00:26:38;;;;;;;36.85;22.92;;;0.40;99.90;;;;;;5079473;28;20199;-56
2021/12/07 00:29:07;;;;;;;35.92;22.58;;;0.40;99.90;;;;;;5078837;28;20218;-57
2021/12/07 00:31:43;;;;;;;43.08;24.02;;;0.50;99.90;;;;;;5077539;28;20298;-56
2021/12/07 00:36:44;;;;;;;43.20;24.73;;;0.40;99.90;;;;;;5078724;28;20195;-56
2021/12/07 00:39:14;;;;;;;36.08;22.65;;;0.30;99.90;;;;;;5078221;28;20270;-56
2021/12/07 00:41:41;;;;;;;41.65;26.50;;;0.20;99.90;;;;;;5078884;28;20556;-53
2021/12/07 00:44:09;;;;;;;46.35;25.73;;;0.30;99.90;;;;;;5078888;28;20236;-55
2021/12/07 00:46:37;;;;;;;43.80;25.38;;;0.20;99.90;;;;;;5078997;28;20199;-55
2021/12/07 00:49:05;;;;;;;35.60;21.63;;;0.20;99.90;;;;;;5071707;28;20234;-54
2021/12/07 00:51:32;;;;;;;40.97;23.90;;;0.20;99.90;;;;;;5077813;28;20246;-56
2021/12/07 00:54:00;;;;;;;49.95;26.88;;;0.30;99.90;;;;;;5073032;28;20210;-52
2021/12/07 00:56:27;;;;;;;42.85;24.90;;;0.10;99.90;;;;;;5080254;28;20270;-54
2021/12/07 00:58:54;;;;;;;52.80;26.10;;;0.10;99.90;;;;;;5079586;28;20206;-54
2021/12/07 01:01:23;;;;;;;49.63;25.60;;;0.10;99.90;;;;;;5078225;28;20225;-54
2021/12/07 01:03:50;;;;;;;48.22;23.25;;;0.20;99.90;;;;;;5070847;28;20199;-52
2021/12/07 01:09:00;;;;;;;38.10;22.33;;;0.20;99.90;;;;;;5078592;28;20261;-52
2021/12/07 01:25:32;;;;;;;39.25;21.27;;;0.40;99.90;;;;;;5078494;28;20244;-55
2021/12/07 01:28:06;;;;;;;36.63;20.95;;;0.30;99.90;;;;;;5077585;28;20218;-55
2021/12/07 01:30:42;;;;;;;41.03;23.13;;;0.40;99.90;;;;;;5078583;28;20252;-51
2021/12/07 01:38:32;;;;;;;36.03;19.60;;;0.30;99.90;;;;;;5078520;28;20289;-51
2021/12/07 01:41:14;;;;;;;35.28;21.77;;;0.20;99.90;;;;;;5076795;28;20222;-53
2021/12/07 02:00:09;;;;;;;49.53;25.80;;;0.20;99.90;;;;;;5081031;28;20244;-52
2021/12/07 02:02:36;;;;;;;36.05;23.10;;;0.20;99.90;;;;;;5075068;28;20214;-50
2021/12/07 02:05:06;;;;;;;38.75;24.40;;;0.10;99.90;;;;;;5082240;28;20199;-54
2021/12/07 02:07:33;;;;;;;39.65;21.30;;;0.10;99.90;;;;;;5080863;28;20206;-54
2021/12/07 02:10:06;;;;;;;42.95;22.80;;;0.00;99.90;;;;;;5080478;28;20218;-57
2021/12/07 02:12:42;;;;;;;41.10;23.10;;;0.20;99.90;;;;;;5081278;28;20219;-56
2021/12/07 02:15:12;;;;;;;45.55;25.50;;;0.30;99.90;;;;;;5081886;28;20458;-53
2021/12/07 02:17:39;;;;;;;41.70;21.25;;;0.40;99.90;;;;;;5064738;28;20195;-50
2021/12/07 02:20:08;;;;;;;40.88;20.55;;;0.50;99.90;;;;;;5079997;28;20199;-54
2021/12/07 02:22:36;;;;;;;37.47;24.45;;;0.30;99.90;;;;;;5060900;28;20218;-52
2021/12/07 02:25:05;;;;;;;52.00;27.92;;;0.40;99.90;;;;;;5081453;28;20199;-51
2021/12/07 02:27:33;;;;;;;43.58;24.88;;;0.20;99.90;;;;;;5080266;28;20199;-54
2021/12/07 02:30:00;;;;;;;43.22;26.02;;;0.20;99.90;;;;;;5078350;28;20205;-55
2021/12/07 02:32:27;;;;;;;49.55;23.83;;;0.30;99.90;;;;;;5080124;28;20214;-56
2021/12/07 02:34:58;;;;;;;47.85;24.23;;;0.20;99.90;;;;;;5079334;28;20236;-54
2021/12/07 02:37:29;;;;;;;45.08;24.50;;;0.20;99.90;;;;;;5081746;28;20394;-54
2021/12/07 02:39:57;;;;;;;37.90;22.85;;;0.20;99.90;;;;;;5074922;28;20200;-51
2021/12/07 02:42:25;;;;;;;49.42;24.60;;;0.20;99.90;;;;;;5079234;28;20215;-52
2021/12/07 02:44:53;;;;;;;47.33;25.27;;;0.30;99.90;;;;;;5082508;28;20202;-55
2021/12/07 02:47:21;;;;;;;49.58;24.20;;;0.10;99.90;;;;;;5082256;28;20501;-52
2021/12/07 02:49:49;;;;;;;44.70;22.73;;;0.20;99.90;;;;;;5081448;28;20279;-54
2021/12/07 02:52:16;;;;;;;47.08;23.52;;;0.20;99.90;;;;;;5079787;28;20257;-56
2021/12/07 02:54:46;;;;;;;40.22;23.15;;;0.20;99.90;;;;;;5079882;28;20257;-53
2021/12/07 02:57:17;;;;;;;42.40;23.40;;;0.20;99.90;;;;;;5080541;28;20194;-53
2021/12/07 02:59:51;;;;;;;46.22;22.52;;;0.20;99.90;;;;;;5079934;28;20199;-54
2021/12/07 03:02:19;;;;;;;44.63;23.00;;;0.40;99.90;;;;;;5078302;28;20219;-55
2021/12/07 03:05:05;;;;;;;46.15;22.90;;;0.30;99.90;;;;;;5079960;28;20199;-50
2021/12/07 03:07:49;;;;;;;42.28;24.85;;;0.40;99.90;;;;;;5080713;28;20203;-52
2021/12/07 03:26:52;;;;;;;52.15;26.63;;;0.20;99.90;;;;;;5080295;28;20481;-56
2021/12/07 03:29:19;;;;;;;51.70;23.25;;;0.40;99.90;;;;;;5081233;28;20583;-56
2021/12/07 03:31:47;;;;;;;54.22;26.02;;;0.30;99.90;;;;;;5080015;28;20261;-54
2021/12/07 03:34:14;;;;;;;49.65;26.40;;;0.30;99.90;;;;;;5080217;28;20548;-51
2021/12/07 03:36:42;;;;;;;45.47;24.25;;;0.10;99.90;;;;;;5079943;28;20440;-55
2021/12/07 03:39:09;;;;;;;47.05;24.30;;;0.10;99.90;;;;;;5080147;28;20207;-54
2021/12/07 03:41:36;;;;;;;51.15;26.42;;;0.00;99.90;;;;;;5080318;28;20218;-52
2021/12/07 03:44:03;;;;;;;56.35;29.45;;;0.20;99.90;;;;;;5080096;28;20225;-51
2021/12/07 03:46:31;;;;;;;55.03;27.67;;;0.10;99.90;;;;;;5080544;28;20207;-53
2021/12/07 03:48:59;;;;;;;56.53;27.75;;;0.20;99.90;;;;;;5084784;28;20536;-58
2021/12/07 03:51:26;;;;;;;45.00;25.55;;;0.30;99.90;;;;;;5084439;28;20306;-53
2021/12/07 03:53:53;;;;;;;55.92;28.95;;;0.40;99.90;;;;;;5083961;28;20432;-56
2021/12/07 03:56:20;;;;;;;51.58;27.30;;;0.40;99.90;;;;;;5088126;28;20195;-54
2021/12/07 03:58:47;;;;;;;48.28;28.95;;;0.40;99.90;;;;;;5059242;28;20199;-56
2021/12/07 04:01:16;;;;;;;52.15;26.40;;;0.30;99.90;;;;;;5079737;28;20268;-53
2021/12/07 04:03:45;;;;;;;56.45;26.00;;;0.20;99.90;;;;;;5078383;28;20198;-54
2021/12/07 04:06:13;;;;;;;54.85;26.52;;;0.20;99.90;;;;;;5079138;28;20211;-55
2021/12/07 04:08:43;;;;;;;68.65;30.40;;;0.20;99.90;;;;;;5079926;28;20237;-54
2021/12/07 04:11:11;;;;;;;63.78;27.75;;;0.10;99.90;;;;;;5078622;28;20214;-53
2021/12/07 04:13:40;;;;;;;56.97;31.17;;;0.10;99.90;;;;;;5079145;28;20203;-54
2021/12/07 04:16:09;;;;;;;69.03;32.83;;;0.10;99.90;;;;;;5072451;28;20521;-55
2021/12/07 04:18:38;;;;;;;56.83;29.00;;;0.20;99.90;;;;;;5060407;28;20229;-53
2021/12/07 04:21:05;;;;;;;54.92;29.33;;;0.20;99.90;;;;;;5078975;28;20590;-56
2021/12/07 04:23:33;;;;;;;53.67;28.25;;;0.10;99.90;;;;;;5078169;28;20207;-54
2021/12/07 04:26:06;;;;;;;54.38;28.42;;;0.10;99.90;;;;;;5079405;28;20455;-53
2021/12/07 04:28:34;;;;;;;50.35;27.85;;;0.10;99.90;;;;;;5077772;28;20218;-54
2021/12/07 04:31:02;;;;;;;52.13;28.67;;;0.10;99.90;;;;;;5079425;28;20308;-54
2021/12/07 04:33:30;;;;;;;63.95;32.42;;;0.20;99.90;;;;;;5078927;28;20444;-54
2021/12/07 04:35:59;;;;;;;49.78;27.13;;;0.30;99.90;;;;;;5079768;28;20512;-56
2021/12/07 04:38:27;;;;;;;49.38;27.25;;;0.30;99.90;;;;;;5079137;28;20245;-52
2021/12/07 04:40:54;;;;;;;67.28;31.50;;;0.20;99.90;;;;;;5076630;28;20223;-53
2021/12/07 04:43:22;;;;;;;62.83;28.92;;;0.20;99.90;;;;;;5076638;28;20198;-55
2021/12/07 04:45:59;;;;;;;61.92;29.75;;;0.30;99.90;;;;;;5078997;28;20517;-53
2021/12/07 04:59:38;;;;;;;56.50;28.48;;;0.40;99.90;;;;;;5079188;28;20532;-55
2021/12/07 05:02:06;;;;;;;55.55;27.42;;;0.40;99.90;;;;;;5079296;28;20226;-53
2021/12/07 05:04:35;;;;;;;54.10;26.30;;;0.30;99.90;;;;;;5073070;28;20256;-54
2021/12/07 05:07:11;;;;;;;60.38;29.92;;;0.40;99.90;;;;;;5078864;28;20206;-52
2021/12/07 05:14:36;;;;;;;50.72;24.50;;;0.50;99.90;;;;;;5083368;28;20195;-53
2021/12/07 05:39:05;;;;;;;44.45;22.75;;;0.50;99.90;;;;;;5084057;28;20264;-51
2021/12/07 05:41:33;;;;;;;41.03;24.25;;;0.60;99.90;;;;;;5083021;28;20215;-50
2021/12/07 05:44:03;;;;;;;42.38;23.80;;;0.50;99.90;;;;;;5083466;28;20198;-57
2021/12/07 05:46:30;;;;;;;42.67;23.63;;;0.50;99.90;;;;;;5083315;28;20195;-53
2021/12/07 05:48:57;;;;;;;46.13;24.52;;;0.50;99.90;;;;;;5082873;28;20229;-53
2021/12/07 05:51:24;;;;;;;43.45;23.88;;;0.40;99.90;;;;;;5083058;28;20219;-54
2021/12/07 05:53:52;;;;;;;39.13;22.50;;;0.40;99.90;;;;;;5083248;28;20195;-51
2021/12/07 05:56:19;;;;;;;45.97;24.48;;;0.40;99.90;;;;;;5083076;28;20199;-54
2021/12/07 05:58:46;;;;;;;49.33;26.80;;;0.50;99.90;;;;;;5083819;28;20199;-51
2021/12/07 06:01:13;;;;;;;51.95;25.45;;;0.50;99.90;;;;;;5085014;28;20276;-53
2021/12/07 06:03:41;;;;;;;52.30;25.98;;;0.30;99.90;;;;;;5084254;28;20213;-52
2021/12/07 06:06:13;;;;;;;49.03;22.73;;;0.30;99.90;;;;;;5084488;28;20555;-54
2021/12/07 06:08:40;;;;;;;50.88;26.63;;;0.40;99.90;;;;;;5083240;28;20308;-55
2021/12/07 06:11:07;;;;;;;47.20;25.13;;;0.40;99.90;;;;;;5083011;28;20214;-53
2021/12/07 06:13:35;;;;;;;62.75;28.92;;;0.30;99.90;;;;;;5082641;28;20199;-51
2021/12/07 06:16:06;;;;;;;56.90;26.08;;;0.30;99.90;;;;;;5082063;28;20233;-53
2021/12/07 06:18:35;;;;;;;52.88;28.35;;;0.30;99.90;;;;;;5083020;28;20397;-53
2021/12/07 06:21:03;;;;;;;55.08;30.02;;;0.30;99.90;;;;;;5081947;28;20634;-51
2021/12/07 06:23:31;;;;;;;59.92;29.67;;;0.30;99.90;;;;;;5082902;28;20413;-52
2021/12/07 06:25:59;;;;;;;63.03;32.25;;;0.30;99.90;;;;;;5082022;28;20448;-53
2021/12/07 06:28:26;;;;;;;54.55;29.15;;;0.20;99.90;;;;;;5082366;28;20199;-54
2021/12/07 06:30:54;;;;;;;70.65;32.78;;;0.20;99.90;;;;;;5082077;28;20268;-54
2021/12/07 06:33:23;;;;;;;58.63;29.02;;;0.30;99.90;;;;;;5082276;28;20364;-55
2021/12/07 06:35:57;;;;;;;61.58;31.48;;;0.40;99.90;;;;;;5081343;28;20571;-55
2021/12/07 06:38:26;;;;;;;64.63;28.25;;;0.40;99.90;;;;;;5081228;28;20194;-52
2021/12/07 06:40:54;;;;;;;55.15;30.63;;;0.40;99.90;;;;;;5082483;28;20219;-53
2021/12/07 06:43:21;;;;;;;57.58;28.13;;;0.50;99.90;;;;;;5081933;28;20203;-51
2021/12/07 06:45:49;;;;;;;56.25;31.52;;;0.50;99.90;;;;;;5081846;28;20256;-50
2021/12/07 06:48:17;;;;;;;74.07;31.33;;;0.60;99.90;;;;;;5081861;28;20260;-52
2021/12/07 06:50:44;;;;;;;62.08;28.05;;;0.40;99.90;;;;;;5082271;28;20280;-57
2021/12/07 06:53:12;;;;;;;60.63;28.45;;;0.40;99.90;;;;;;5087278;28;20424;-57
2021/12/07 06:55:39;;;;;;;58.55;29.27;;;0.40;99.90;;;;;;5081221;28;20203;-52
2021/12/07 06:58:07;;;;;;;62.33;28.95;;;0.30;99.90;;;;;;5081920;28;20374;-53
2021/12/07 07:00:35;;;;;;;57.88;28.27;;;0.30;99.90;;;;;;5082432;28;20203;-54
2021/12/07 07:03:02;;;;;;;67.88;28.88;;;0.40;99.90;;;;;;5082656;28;20209;-51
2021/12/07 07:05:30;;;;;;;70.63;29.60;;;0.60;99.90;;;;;;5081786;28;20398;-56
2021/12/07 07:07:57;;;;;;;68.53;33.80;;;0.40;99.90;;;;;;5081829;28;20424;-55
2021/12/07 07:10:25;;;;;;;56.10;27.88;;;0.40;99.90;;;;;;5081832;28;20544;-53
2021/12/07 07:12:52;;;;;;;68.43;28.85;;;0.40;99.90;;;;;;5081439;28;20297;-54
2021/12/07 07:15:20;;;;;;;59.75;26.65;;;0.40;99.90;;;;;;5081306;28;20394;-54
2021/12/07 07:17:47;;;;;;;60.88;27.80;;;0.50;99.90;;;;;;5081684;28;20194;-52
2021/12/07 07:20:15;;;;;;;58.50;26.83;;;0.40;99.90;;;;;;5084071;28;20237;-53
2021/12/07 07:22:43;;;;;;;56.60;25.58;;;0.40;99.90;;;;;;5090384;28;20274;-53
2021/12/07 07:25:11;;;;;;;60.35;28.00;;;0.50;99.90;;;;;;5090019;28;20256;-56
2021/12/07 07:27:39;;;;;;;49.15;26.48;;;0.50;99.90;;;;;;5090827;28;20221;-54
2021/12/07 07:30:10;;;;;;;70.03;28.52;;;0.40;99.90;;;;;;5089208;28;20225;-53
2021/12/07 07:32:37;;;;;;;60.13;29.48;;;0.50;99.90;;;;;;5088819;28;20417;-55
2021/12/07 07:35:07;;;;;;;63.80;32.95;;;0.50;99.90;;;;;;5084557;28;20194;-56
2021/12/07 07:37:35;;;;;;;58.20;29.67;;;0.50;99.90;;;;;;5084076;28;20202;-53
2021/12/07 07:40:08;;;;;;;52.95;26.95;;;0.60;99.90;;;;;;5084084;28;20252;-53
2021/12/07 07:42:39;;;;;;;56.03;26.30;;;0.50;99.90;;;;;;5085468;28;20245;-55
2021/12/07 07:45:07;;;;;;;55.08;28.88;;;0.40;99.90;;;;;;5083484;28;20210;-52
2021/12/07 07:47:34;;;;;;;51.22;26.70;;;0.40;99.90;;;;;;5081069;28;20199;-54
2021/12/07 07:50:02;;;;;;;60.38;29.55;;;0.40;99.90;;;;;;5082549;28;20595;-54
2021/12/07 07:52:29;;;;;;;58.30;27.25;;;0.50;99.90;;;;;;5082859;28;20253;-50
2021/12/07 07:54:56;;;;;;;63.33;29.80;;;0.40;99.90;;;;;;5081544;28;20195;-53
2021/12/07 07:57:24;;;;;;;61.90;30.85;;;0.40;99.90;;;;;;5081534;28;20195;-55
2021/12/07 07:59:51;;;;;;;55.83;28.52;;;0.50;99.90;;;;;;5080676;28;20199;-53
2021/12/07 08:02:19;;;;;;;61.92;28.30;;;0.50;99.90;;;;;;5079904;28;20533;-52
2021/12/07 08:04:47;;;;;;;60.65;27.80;;;0.40;99.90;;;;;;5080410;28;20214;-51
2021/12/07 08:07:15;;;;;;;58.30;27.50;;;0.30;99.90;;;;;;5081211;28;20203;-51
2021/12/07 08:09:42;;;;;;;60.78;28.95;;;0.30;99.90;;;;;;5080005;28;20261;-55
2021/12/07 08:12:09;;;;;;;58.92;28.58;;;0.30;99.90;;;;;;5080170;28;20253;-53
2021/12/07 08:14:36;;;;;;;79.75;35.08;;;0.20;99.90;;;;;;5080016;28;20236;-53
2021/12/07 08:17:04;;;;;;;61.20;28.02;;;0.10;99.90;;;;;;5080508;28;20210;-53
2021/12/07 08:19:33;;;;;;;56.58;31.00;;;0.10;99.90;;;;;;5080746;28;20190;-53
2021/12/07 08:22:00;;;;;;;74.32;32.72;;;0.40;99.90;;;;;;5082238;28;20219;-52
2021/12/07 08:24:27;;;;;;;63.45;29.00;;;0.70;99.90;;;;;;5082279;28;20204;-54
2021/12/07 08:26:55;;;;;;;58.40;29.42;;;0.80;99.90;;;;;;5082668;28;20202;-57
2021/12/07 08:29:36;;;;;;;63.95;31.15;;;0.70;99.90;;;;;;5083468;28;20222;-50
2021/12/07 08:32:03;;;;;;;55.35;27.33;;;0.70;99.90;;;;;;5084649;28;20222;-53
2021/12/07 08:34:31;;;;;;;67.10;29.20;;;0.60;99.90;;;;;;5085403;28;20422;-53
2021/12/07 08:36:58;;;;;;;64.78;29.52;;;0.40;99.90;;;;;;5082711;28;20423;-56
2021/12/07 08:39:25;;;;;;;53.88;26.52;;;0.40;99.90;;;;;;5084754;28;20228;-54
2021/12/07 08:41:52;;;;;;;54.65;27.55;;;0.50;99.90;;;;;;5081909;28;20500;-54
2021/12/07 08:44:20;;;;;;;65.57;30.50;;;0.40;99.90;;;;;;5082774;28;20414;-54
2021/12/07 08:46:47;;;;;;;51.38;25.67;;;0.50;99.90;;;;;;5083228;28;20202;-54
2021/12/07 08:49:15;;;;;;;61.58;27.55;;;0.50;99.90;;;;;;5082176;28;20233;-55
2021/12/07 08:51:43;;;;;;;56.63;28.42;;;0.70;99.90;;;;;;5082472;28;20413;-53
2021/12/07 08:59:52;;;;;;;49.63;27.75;;;1.00;99.90;;;;;;5079965;28;20198;-54
2021/12/07 09:02:23;;;;;;;49.50;25.83;;;0.90;99.90;;;;;;5080803;28;20222;-50
2021/12/07 09:04:53;;;;;;;41.35;24.70;;;0.80;99.90;;;;;;5080453;28;20187;-56
2021/12/07 09:07:21;;;;;;;59.13;27.88;;;0.80;99.90;;;;;;5081361;28;20273;-55
2021/12/07 09:09:49;;;;;;;52.88;26.38;;;0.80;99.90;;;;;;5081340;28;20225;-52
2021/12/07 09:12:17;;;;;;;57.22;26.35;;;1.10;99.90;;;;;;5080682;28;20399;-52
2021/12/07 09:14:46;;;;;;;47.40;24.88;;;1.00;99.90;;;;;;5080900;28;20493;-53
2021/12/07 09:17:14;;;;;;;44.08;25.90;;;1.00;99.90;;;;;;5081183;28;20248;-51
2021/12/07 09:19:44;;;;;;;42.38;25.25;;;1.00;99.90;;;;;;5081280;28;20199;-56
2021/12/07 09:22:12;;;;;;;41.85;23.45;;;1.00;99.90;;;;;;5080478;28;20545;-51
2021/12/07 09:24:52;;;;;;;43.75;25.02;;;0.90;99.90;;;;;;5081233;28;20301;-52
2021/12/07 09:27:19;;;;;;;38.42;22.92;;;1.00;99.90;;;;;;5079750;28;20224;-54
2021/12/07 09:29:47;;;;;;;40.28;24.02;;;1.10;99.90;;;;;;5080381;28;20223;-54
2021/12/07 09:32:14;;;;;;;48.60;25.95;;;1.00;99.90;;;;;;5079127;28;20606;-52
2021/12/07 09:34:42;;;;;;;45.20;22.00;;;1.10;99.90;;;;;;5079174;28;20194;-56
2021/12/07 09:37:09;;;;;;;37.00;20.98;;;1.10;99.90;;;;;;5079567;28;20430;-52
2021/12/07 09:39:36;;;;;;;31.77;18.80;;;1.10;99.90;;;;;;5079095;28;20237;-50
2021/12/07 09:42:04;;;;;;;33.92;18.70;;;1.00;99.90;;;;;;5079258;28;20219;-53
2021/12/07 09:44:31;;;;;;;40.60;20.92;;;1.00;99.90;;;;;;5078876;28;20537;-50
2021/12/07 09:47:00;;;;;;;32.78;18.80;;;1.00;99.90;;;;;;5079616;28;20237;-52
2021/12/07 09:49:27;;;;;;;36.85;20.17;;;1.00;99.90;;;;;;5079393;28;20268;-55
2021/12/07 09:51:54;;;;;;;41.53;21.42;;;1.00;99.90;;;;;;5079148;28;20479;-55
2021/12/07 09:54:21;;;;;;;31.98;20.35;;;1.00;99.90;;;;;;5079280;28;20221;-51
2021/12/07 09:56:49;;;;;;;55.78;22.98;;;1.00;99.90;;;;;;5078764;28;20195;-52
2021/12/07 09:59:16;;;;;;;49.97;23.23;;;1.00;99.90;;;;;;5079209;28;20535;-51
2021/12/07 10:01:44;;;;;;;38.03;25.63;;;0.90;99.90;;;;;;5078795;28;20559;-53
2021/12/07 10:04:11;;;;;;;43.17;22.50;;;0.90;99.90;;;;;;5079078;28;20227;-53
2021/12/07 10:06:39;;;;;;;39.63;20.65;;;0.80;99.90;;;;;;5078923;28;20207;-53
2021/12/07 10:09:07;;;;;;;54.50;29.10;;;0.70;99.90;;;;;;5078913;28;20207;-53
2021/12/07 10:11:35;;;;;;;45.58;24.67;;;0.70;99.90;;;;;;5080928;28;20272;-55
2021/12/07 10:14:03;;;;;;;54.83;30.55;;;0.70;99.90;;;;;;5091257;28;20191;-57
2021/12/07 10:16:30;;;;;;;57.38;27.48;;;0.80;99.90;;;;;;5087010;28;20332;-54
2021/12/07 10:18:58;;;;;;;54.72;26.20;;;0.60;99.90;;;;;;5083434;28;20222;-53
2021/12/07 10:21:38;;;;;;;58.50;30.25;;;0.70;99.90;;;;;;5082848;28;20246;-51
2021/12/07 10:24:09;;;;;;;49.95;27.80;;;0.70;99.90;;;;;;5082390;28;20607;-55
2021/12/07 10:26:39;;;;;;;59.10;27.13;;;0.70;99.90;;;;;;5082997;28;20424;-53
2021/12/07 10:29:14;;;;;;;51.83;27.55;;;0.80;99.90;;;;;;5082737;28;20198;-51
2021/12/07 10:31:51;;;;;;;61.05;26.75;;;0.80;99.90;;;;;;5082204;28;20272;-54
2021/12/07 10:34:25;;;;;;;52.33;25.30;;;0.90;99.90;;;;;;5082268;28;20494;-51
2021/12/07 10:37:11;;;;;;;52.97;26.42;;;0.90;99.90;;;;;;5081960;28;20281;-55
2021/12/07 10:39:49;;;;;;;55.05;27.60;;;0.90;99.90;;;;;;5081385;28;20241;-51
2021/12/07 10:42:29;;;;;;;50.38;25.08;;;0.80;99.90;;;;;;5082149;28;20218;-57
2021/12/07 10:45:09;;;;;;;56.00;27.15;;;0.60;99.90;;;;;;5082279;28;20260;-52
2021/12/07 10:47:37;;;;;;;59.15;22.77;;;0.60;99.90;;;;;;5082632;28;20642;-55
2021/12/07 10:50:09;;;;;;;51.10;24.15;;;0.60;99.90;;;;;;5083526;28;20223;-55
2021/12/07 10:52:42;;;;;;;62.35;28.00;;;0.70;99.90;;;;;;5082952;28;20214;-54
2021/12/07 10:55:19;;;;;;;56.53;28.77;;;0.70;99.90;;;;;;5082461;28;20202;-53
2021/12/07 10:57:57;;;;;;;50.35;26.17;;;0.80;99.90;;;;;;5082407;28;20336;-53
2021/12/07 11:00:30;;;;;;;52.55;26.67;;;0.80;99.90;;;;;;5082228;28;20339;-54
2021/12/07 11:03:02;;;;;;;51.67;25.80;;;0.70;99.90;;;;;;5082375;28;20221;-51
2021/12/07 11:05:37;;;;;;;47.17;23.70;;;0.60;99.90;;;;;;5081493;28;20199;-54
2021/12/07 11:08:06;;;;;;;58.08;26.20;;;0.70;99.90;;;;;;5081916;28;20199;-55
2021/12/07 11:10:37;;;;;;;69.53;27.92;;;0.80;99.90;;;;;;5081245;28;20262;-51
2021/12/07 11:13:16;;;;;;;54.70;25.70;;;0.80;99.90;;;;;;5081713;28;20513;-52
2021/12/07 11:15:53;;;;;;;45.05;21.85;;;0.80;99.90;;;;;;5081069;28;20240;-55
2021/12/07 11:18:23;;;;;;;51.95;23.55;;;0.80;99.90;;;;;;5081576;28;20254;-52
2021/12/07 11:20:53;;;;;;;38.28;19.60;;;0.70;99.90;;;;;;5081347;28;20451;-57
2021/12/07 11:23:28;;;;;;;43.10;21.55;;;0.70;99.90;;;;;;5083074;28;20213;-53
2021/12/07 11:31:28;;;;;;;35.72;18.95;;;0.60;99.90;;;;;;5081128;28;20227;-54
2021/12/07 11:34:09;;;;;;;50.25;21.45;;;0.90;99.90;;;;;;5081484;28;20277;-56
2021/12/07 11:36:48;;;;;;;46.03;20.80;;;1.10;99.90;;;;;;5081173;28;20206;-53
2021/12/07 11:39:32;;;;;;;57.08;25.17;;;1.10;99.90;;;;;;5080773;28;20575;-54
2021/12/07 11:42:03;;;;;;;50.75;23.58;;;1.20;99.90;;;;;;5081467;28;20401;-54
2021/12/07 11:44:34;;;;;;;40.05;21.27;;;1.20;99.90;;;;;;5081047;28;20199;-54
2021/12/07 11:47:04;;;;;;;34.20;19.08;;;1.20;99.90;;;;;;5081054;28;20432;-55
2021/12/07 11:49:34;;;;;;;40.95;21.02;;;1.00;99.90;;;;;;5080214;28;20270;-56
2021/12/07 11:52:05;;;;;;;62.10;27.05;;;0.90;99.90;;;;;;5081870;28;20235;-55
2021/12/07 11:54:36;;;;;;;56.00;25.35;;;0.90;99.90;;;;;;5089389;28;20217;-55
2021/12/07 11:57:07;;;;;;;45.03;23.23;;;0.90;99.90;;;;;;5081753;28;20195;-53
2021/12/07 11:59:34;;;;;;;44.42;22.55;;;0.90;99.90;;;;;;5080735;28;20203;-54
2021/12/07 12:02:01;;;;;;;44.05;20.60;;;1.00;99.90;;;;;;5080752;28;20223;-54
2021/12/07 12:04:29;;;;;;;36.80;17.02;;;0.90;99.90;;;;;;5080402;28;20226;-53
2021/12/07 12:06:57;;;;;;;38.95;19.40;;;0.80;99.90;;;;;;5080675;28;20203;-54
2021/12/07 12:09:26;;;;;;;39.33;20.60;;;0.60;99.90;;;;;;5080618;28;20258;-54
2021/12/07 12:12:06;;;;;;;40.97;18.35;;;0.60;99.90;;;;;;5080246;28;20227;-58
2021/12/07 12:14:46;;;;;;;31.05;21.30;;;0.50;99.90;;;;;;5082650;28;20214;-56
2021/12/07 12:17:17;;;;;;;38.28;20.75;;;0.40;99.90;;;;;;5080741;28;20423;-51
2021/12/07 12:20:25;;;;;;;32.78;17.33;;;0.40;99.90;;;;;;5080952;28;20194;-54
2021/12/07 12:23:16;;;;;;;41.65;19.15;;;0.60;99.90;;;;;;5079615;28;20199;-51
2021/12/07 12:25:43;;;;;;;37.78;21.70;;;0.60;99.90;;;;;;5079981;28;20237;-53
2021/12/07 12:28:11;;;;;;;34.95;19.48;;;0.60;99.90;;;;;;5079970;28;20523;-57
2021/12/07 12:30:40;;;;;;;36.25;18.20;;;0.70;99.90;;;;;;5080227;28;20256;-52
2021/12/07 12:33:11;;;;;;;33.67;18.38;;;0.70;99.90;;;;;;5080176;28;20217;-52
2021/12/07 12:35:54;;;;;;;35.83;18.95;;;0.70;99.90;;;;;;5079446;28;20232;-57
2021/12/07 12:38:28;;;;;;;35.45;20.30;;;0.60;99.90;;;;;;5080130;28;20202;-55
2021/12/07 12:40:59;;;;;;;32.42;19.00;;;0.60;99.90;;;;;;5080824;28;20229;-55
2021/12/07 12:43:44;;;;;;;34.92;17.25;;;0.70;99.90;;;;;;5082286;28;20207;-53
2021/12/07 12:46:16;;;;;;;33.17;17.50;;;0.70;99.90;;;;;;5083169;28;20207;-55
2021/12/07 12:48:53;;;;;;;28.10;17.63;;;0.60;99.90;;;;;;5081698;28;20206;-54
2021/12/07 12:51:28;;;;;;;36.22;19.10;;;0.50;99.90;;;;;;5079987;28;20218;-55
2021/12/07 12:53:56;;;;;;;37.95;17.88;;;0.60;99.90;;;;;;5080199;28;20249;-54
2021/12/07 12:56:30;;;;;;;37.90;19.27;;;0.70;99.90;;;;;;5080280;28;20237;-52
2021/12/07 12:59:02;;;;;;;25.38;16.70;;;0.80;99.90;;;;;;5080839;28;20225;-54
2021/12/07 13:01:35;;;;;;;34.78;18.65;;;0.80;99.90;;;;;;5080501;28;20222;-52
2021/12/07 13:04:12;;;;;;;30.48;18.10;;;0.80;99.90;;;;;;5079817;28;20209;-51
2021/12/07 13:06:47;;;;;;;25.65;16.48;;;0.70;99.90;;;;;;5080444;28;20187;-51
2021/12/07 13:09:17;;;;;;;24.77;14.60;;;0.70;99.90;;;;;;5079741;28;20220;-57
2021/12/07 13:12:05;;;;;;;33.50;16.15;;;0.70;99.90;;;;;;5081298;28;20406;-57
2021/12/07 13:14:42;;;;;;;33.85;18.42;;;0.60;99.90;;;;;;5080143;28;20195;-55
2021/12/07 13:17:23;;;;;;;35.88;17.52;;;0.60;99.90;;;;;;5080623;28;20238;-55
2021/12/07 13:20:11;;;;;;;30.45;15.93;;;0.70;99.90;;;;;;5080451;28;20199;-55
2021/12/07 13:23:11;;;;;;;27.75;17.52;;;0.70;99.90;;;;;;5080583;28;20248;-53
2021/12/07 13:25:49;;;;;;;28.83;17.20;;;0.70;99.90;;;;;;5085000;28;20264;-57
2021/12/07 13:28:31;;;;;;;32.58;17.77;;;0.70;99.90;;;;;;5082127;28;20194;-53
2021/12/07 13:31:17;;;;;;;28.67;18.10;;;0.80;99.90;;;;;;5079662;28;20279;-55
2021/12/07 13:33:57;;;;;;;31.48;17.98;;;0.80;99.90;;;;;;5086602;28;20195;-60
2021/12/07 13:36:42;;;;;;;28.40;17.20;;;0.90;99.90;;;;;;5082928;28;20199;-56
2021/12/07 13:39:10;;;;;;;31.30;17.63;;;0.90;99.90;;;;;;5080053;28;20248;-53
2021/12/07 13:41:51;;;;;;;31.35;18.52;;;1.00;99.90;;;;;;5079167;28;20218;-55
2021/12/07 13:44:18;;;;;;;32.42;19.77;;;1.10;99.90;;;;;;5079014;28;20198;-53
2021/12/07 13:46:46;;;;;;;30.35;17.60;;;1.00;99.90;;;;;;5081441;28;20618;-52
2021/12/07 13:49:14;;;;;;;31.08;20.80;;;0.90;99.90;;;;;;5082644;28;20217;-50
2021/12/07 13:51:41;;;;;;;28.02;16.52;;;0.80;99.90;;;;;;5083116;28;20226;-57
2021/12/07 13:54:16;;;;;;;32.65;18.48;;;0.70;99.90;;;;;;5083261;28;20199;-54
2021/12/07 13:56:44;;;;;;;28.35;18.90;;;0.60;99.90;;;;;;5083827;28;20485;-54
2021/12/07 13:59:16;;;;;;;31.65;17.40;;;0.70;99.90;;;;;;5082600;28;20203;-52
2021/12/07 14:01:55;;;;;;;33.58;18.17;;;0.60;99.90;;;;;;5083582;28;20476;-53
2021/12/07 14:04:26;;;;;;;29.95;17.83;;;0.50;99.90;;;;;;5082083;28;20551;-50
2021/12/07 14:06:55;;;;;;;37.22;20.30;;;0.60;99.90;;;;;;5083173;28;20221;-54
2021/12/07 14:09:23;;;;;;;31.98;19.27;;;0.70;99.90;;;;;;5081805;28;20256;-51
2021/12/07 14:11:53;;;;;;;26.88;17.80;;;0.60;99.90;;;;;;5082641;28;20242;-53
2021/12/07 14:14:22;;;;;;;36.97;20.17;;;0.60;99.90;;;;;;5082551;28;20298;-51
2021/12/07 14:16:54;;;;;;;28.77;19.02;;;0.60;99.90;;;;;;5082341;28;20203;-53
2021/12/07 14:19:21;;;;;;;28.80;18.27;;;0.90;99.90;;;;;;5082670;28;20218;-53
2021/12/07 14:21:49;;;;;;;32.55;17.15;;;0.90;99.90;;;;;;5082693;28;20226;-52
2021/12/07 14:24:19;;;;;;;32.38;18.88;;;0.80;99.90;;;;;;5083137;28;20214;-51
2021/12/07 14:26:48;;;;;;;34.38;20.42;;;0.60;99.90;;;;;;5083317;28;20199;-56
2021/12/07 14:29:20;;;;;;;32.88;18.60;;;0.70;99.90;;;;;;5083265;28;20211;-53
2021/12/07 14:31:48;;;;;;;32.65;19.60;;;0.60;99.90;;;;;;5083806;28;20249;-51
2021/12/07 14:34:30;;;;;;;39.30;21.42;;;0.70;99.90;;;;;;5083474;28;20260;-53
2021/12/07 14:37:05;;;;;;;32.85;19.75;;;0.70;99.90;;;;;;5082936;28;20244;-54
2021/12/07 14:39:44;;;;;;;38.63;19.27;;;0.60;99.90;;;;;;5082219;28;20201;-53